Brookfield, Wisconsin
Current Conditions -  °F | °C
As of 6:45 PM on Friday 24 Oct 2014 (Local Time) from KUES Reporting Station
Scattered Clouds Scattered Clouds  
Wind Chill: 12°   Ceiling: Unl
Heat Index: 12°   Visibility: 10mi
Dew Point:   Wind: 3mph
Humidity: 82%   Direction: 160°SSE
Pressure: 29.95"   Gusts: NA
Location:  43.06°N, 88.13°W
Report Text: KUES 242345Z 16003KT 10SM SCT080 12/09 A2995
Loading
Personal Weather Stations






























Interactive Weather Map
Tropical Storm Tracking
New forecast layout! Learn more

10-Day Weather Forecast

Advertisements
Track Severe Weather on mobile